sensor_id;sensor_type;location;lat;lon;timestamp;pressure;altitude;pressure_sealevel;temperature;humidity
60355;BME280;46198;51.464;-0.066;2023-01-08T00:01:23;99674.53;;;7.60;100.00
60355;BME280;46198;51.464;-0.066;2023-01-08T00:03:51;99679.09;;;7.60;100.00
60355;BME280;46198;51.464;-0.066;2023-01-08T00:06:19;99675.56;;;7.59;100.00
60355;BME280;46198;51.464;-0.066;2023-01-08T00:08:48;99670.88;;;7.54;100.00
60355;BME280;46198;51.464;-0.066;2023-01-08T00:11:16;99678.66;;;7.63;100.00
60355;BME280;46198;51.464;-0.066;2023-01-08T00:13:45;99663.63;;;7.67;100.00
60355;BME280;46198;51.464;-0.066;2023-01-08T00:16:14;99660.78;;;7.62;100.00
60355;BME280;46198;51.464;-0.066;2023-01-08T00:18:45;99661.53;;;7.69;100.00
60355;BME280;46198;51.464;-0.066;2023-01-08T00:21:14;99663.97;;;7.70;100.00
60355;BME280;46198;51.464;-0.066;2023-01-08T00:23:42;99663.16;;;7.70;100.00
60355;BME280;46198;51.464;-0.066;2023-01-08T00:26:10;99653.16;;;7.70;100.00
60355;BME280;46198;51.464;-0.066;2023-01-08T00:28:39;99653.09;;;7.77;100.00
60355;BME280;46198;51.464;-0.066;2023-01-08T00:31:10;99648.38;;;7.72;100.00
60355;BME280;46198;51.464;-0.066;2023-01-08T00:33:39;99655.19;;;7.75;100.00
60355;BME280;46198;51.464;-0.066;2023-01-08T00:36:10;99644.38;;;7.75;100.00
60355;BME280;46198;51.464;-0.066;2023-01-08T00:38:39;99638.06;;;7.81;100.00
60355;BME280;46198;51.464;-0.066;2023-01-08T00:41:07;99649.78;;;7.75;100.00
60355;BME280;46198;51.464;-0.066;2023-01-08T00:43:36;99647.09;;;7.75;100.00
60355;BME280;46198;51.464;-0.066;2023-01-08T00:46:04;99650.00;;;7.73;100.00
60355;BME280;46198;51.464;-0.066;2023-01-08T00:48:34;99646.03;;;7.76;100.00
60355;BME280;46198;51.464;-0.066;2023-01-08T00:51:06;99643.91;;;7.78;100.00
60355;BME280;46198;51.464;-0.066;2023-01-08T00:53:36;99628.53;;;7.78;100.00
60355;BME280;46198;51.464;-0.066;2023-01-08T00:56:07;99639.19;;;7.73;100.00
60355;BME280;46198;51.464;-0.066;2023-01-08T00:58:35;99632.06;;;7.79;100.00
60355;BME280;46198;51.464;-0.066;2023-01-08T01:01:08;99641.69;;;7.75;100.00
60355;BME280;46198;51.464;-0.066;2023-01-08T01:03:37;99637.91;;;7.76;100.00
60355;BME280;46198;51.464;-0.066;2023-01-08T01:06:06;99642.38;;;7.70;100.00
60355;BME280;46198;51.464;-0.066;2023-01-08T01:08:35;99642.38;;;7.70;100.00
60355;BME280;46198;51.464;-0.066;2023-01-08T01:11:07;99649.19;;;7.73;100.00
60355;BME280;46198;51.464;-0.066;2023-01-08T01:13:35;99647.44;;;7.78;100.00
60355;BME280;46198;51.464;-0.066;2023-01-08T01:16:05;99647.31;;;7.73;100.00
60355;BME280;46198;51.464;-0.066;2023-01-08T01:18:33;99636.16;;;7.70;100.00
60355;BME280;46198;51.464;-0.066;2023-01-08T01:21:01;99642.88;;;7.79;100.00
60355;BME280;46198;51.464;-0.066;2023-01-08T01:23:29;99640.19;;;7.79;100.00
60355;BME280;46198;51.464;-0.066;2023-01-08T01:25:59;99626.88;;;7.77;100.00
60355;BME280;46198;51.464;-0.066;2023-01-08T01:28:27;99627.25;;;7.81;100.00
60355;BME280;46198;51.464;-0.066;2023-01-08T01:30:55;99621.75;;;7.88;100.00
60355;BME280;46198;51.464;-0.066;2023-01-08T01:33:24;99623.50;;;7.82;100.00
60355;BME280;46198;51.464;-0.066;2023-01-08T01:35:59;99631.38;;;7.84;100.00
60355;BME280;46198;51.464;-0.066;2023-01-08T01:38:28;99619.88;;;7.88;100.00
60355;BME280;46198;51.464;-0.066;2023-01-08T01:41:01;99620.34;;;7.85;100.00
60355;BME280;46198;51.464;-0.066;2023-01-08T01:43:34;99615.75;;;7.86;100.00
60355;BME280;46198;51.464;-0.066;2023-01-08T01:46:02;99622.09;;;7.91;100.00
60355;BME280;46198;51.464;-0.066;2023-01-08T01:48:32;99607.31;;;7.94;100.00
60355;BME280;46198;51.464;-0.066;2023-01-08T01:51:01;99612.47;;;7.95;100.00
60355;BME280;46198;51.464;-0.066;2023-01-08T01:53:31;99611.19;;;7.98;100.00
60355;BME280;46198;51.464;-0.066;2023-01-08T01:56:01;99608.59;;;7.91;100.00
60355;BME280;46198;51.464;-0.066;2023-01-08T01:58:31;99611.63;;;7.95;100.00
60355;BME280;46198;51.464;-0.066;2023-01-08T02:01:02;99610.00;;;7.94;100.00
60355;BME280;46198;51.464;-0.066;2023-01-08T02:03:35;99618.59;;;8.03;100.00
60355;BME280;46198;51.464;-0.066;2023-01-08T02:06:09;99616.13;;;8.01;100.00
60355;BME280;46198;51.464;-0.066;2023-01-08T02:08:51;99619.88;;;8.00;100.00
60355;BME280;46198;51.464;-0.066;2023-01-08T02:11:27;99613.66;;;7.99;100.00
60355;BME280;46198;51.464;-0.066;2023-01-08T02:14:01;99618.59;;;8.03;100.00
60355;BME280;46198;51.464;-0.066;2023-01-08T02:16:37;99616.81;;;7.96;100.00
60355;BME280;46198;51.464;-0.066;2023-01-08T02:19:16;99616.00;;;8.08;100.00
60355;BME280;46198;51.464;-0.066;2023-01-08T02:21:56;99612.63;;;8.12;100.00
60355;BME280;46198;51.464;-0.066;2023-01-08T02:24:40;99626.69;;;8.03;100.00
60355;BME280;46198;51.464;-0.066;2023-01-08T02:27:12;99627.28;;;8.05;100.00
60355;BME280;46198;51.464;-0.066;2023-01-08T02:29:40;99629.06;;;8.11;100.00
60355;BME280;46198;51.464;-0.066;2023-01-08T02:32:09;99636.94;;;8.12;100.00
60355;BME280;46198;51.464;-0.066;2023-01-08T02:34:37;99634.59;;;8.16;100.00
60355;BME280;46198;51.464;-0.066;2023-01-08T02:37:07;99644.47;;;8.10;100.00
60355;BME280;46198;51.464;-0.066;2023-01-08T02:39:56;99640.59;;;8.18;100.00
60355;BME280;46198;51.464;-0.066;2023-01-08T02:42:35;99672.91;;;8.13;100.00
60355;BME280;46198;51.464;-0.066;2023-01-08T02:45:11;99660.47;;;8.12;100.00
60355;BME280;46198;51.464;-0.066;2023-01-08T02:47:44;99623.66;;;8.11;100.00
60355;BME280;46198;51.464;-0.066;2023-01-08T02:50:19;99635.41;;;8.05;100.00
60355;BME280;46198;51.464;-0.066;2023-01-08T02:52:54;99639.28;;;7.97;100.00
60355;BME280;46198;51.464;-0.066;2023-01-08T02:55:26;99643.72;;;7.91;100.00
60355;BME280;46198;51.464;-0.066;2023-01-08T02:57:57;99638.31;;;7.91;100.00
60355;BME280;46198;51.464;-0.066;2023-01-08T03:00:27;99646.41;;;7.91;100.00
60355;BME280;46198;51.464;-0.066;2023-01-08T03:03:04;99648.31;;;7.91;100.00
60355;BME280;46198;51.464;-0.066;2023-01-08T03:05:37;99622.56;;;7.88;100.00
60355;BME280;46198;51.464;-0.066;2023-01-08T03:08:07;99626.34;;;7.87;100.00
60355;BME280;46198;51.464;-0.066;2023-01-08T03:10:37;99614.69;;;7.87;100.00
60355;BME280;46198;51.464;-0.066;2023-01-08T03:13:11;99608.69;;;7.85;100.00
60355;BME280;46198;51.464;-0.066;2023-01-08T03:15:45;99613.03;;;7.86;100.00
60355;BME280;46198;51.464;-0.066;2023-01-08T03:18:18;99602.78;;;7.76;100.00
60355;BME280;46198;51.464;-0.066;2023-01-08T03:20:48;99599.06;;;7.77;100.00
60355;BME280;46198;51.464;-0.066;2023-01-08T03:23:19;99595.00;;;7.68;100.00
60355;BME280;46198;51.464;-0.066;2023-01-08T03:25:49;99595.97;;;7.73;100.00
60355;BME280;46198;51.464;-0.066;2023-01-08T03:28:22;99582.56;;;7.67;100.00
60355;BME280;46198;51.464;-0.066;2023-01-08T03:30:56;99588.44;;;7.64;100.00
60355;BME280;46198;51.464;-0.066;2023-01-08T03:33:26;99581.50;;;7.56;100.00
60355;BME280;46198;51.464;-0.066;2023-01-08T03:35:59;99583.97;;;7.58;100.00
60355;BME280;46198;51.464;-0.066;2023-01-08T03:38:32;99581.59;;;7.49;100.00
60355;BME280;46198;51.464;-0.066;2023-01-08T03:41:05;99581.94;;;7.53;100.00
60355;BME280;46198;51.464;-0.066;2023-01-08T03:43:37;99580.66;;;7.55;100.00
60355;BME280;46198;51.464;-0.066;2023-01-08T03:46:08;99592.75;;;7.53;100.00
60355;BME280;46198;51.464;-0.066;2023-01-08T03:48:41;99588.66;;;7.62;100.00
60355;BME280;46198;51.464;-0.066;2023-01-08T03:51:10;99587.16;;;7.66;100.00
60355;BME280;46198;51.464;-0.066;2023-01-08T03:53:38;99587.16;;;7.66;100.00
60355;BME280;46198;51.464;-0.066;2023-01-08T03:56:07;99595.88;;;7.68;100.00
60355;BME280;46198;51.464;-0.066;2023-01-08T03:58:39;99584.81;;;7.70;100.00
60355;BME280;46198;51.464;-0.066;2023-01-08T04:01:07;99576.09;;;7.68;100.00
60355;BME280;46198;51.464;-0.066;2023-01-08T04:03:36;99572.38;;;7.69;100.00
60355;BME280;46198;51.464;-0.066;2023-01-08T04:06:04;99573.19;;;7.69;100.00
60355;BME280;46198;51.464;-0.066;2023-01-08T04:08:32;99574.59;;;7.72;100.00
60355;BME280;46198;51.464;-0.066;2023-01-08T04:11:00;99570.00;;;7.72;100.00
60355;BME280;46198;51.464;-0.066;2023-01-08T04:13:29;99569.28;;;7.65;100.00
60355;BME280;46198;51.464;-0.066;2023-01-08T04:15:58;99571.75;;;7.67;100.00
60355;BME280;46198;51.464;-0.066;2023-01-08T04:18:26;99563.88;;;7.65;100.00
60355;BME280;46198;51.464;-0.066;2023-01-08T04:20:54;99568.47;;;7.65;100.00
60355;BME280;46198;51.464;-0.066;2023-01-08T04:23:22;99567.28;;;7.61;100.00
60355;BME280;46198;51.464;-0.066;2023-01-08T04:25:52;99563.53;;;7.62;100.00
60355;BME280;46198;51.464;-0.066;2023-01-08T04:28:20;99571.41;;;7.63;100.00
60355;BME280;46198;51.464;-0.066;2023-01-08T04:30:48;99566.00;;;7.63;100.00
60355;BME280;46198;51.464;-0.066;2023-01-08T04:33:18;99565.63;;;7.60;100.00
60355;BME280;46198;51.464;-0.066;2023-01-08T04:35:46;99585.00;;;7.57;100.00
60355;BME280;46198;51.464;-0.066;2023-01-08T04:38:14;99603.09;;;7.56;100.00
60355;BME280;46198;51.464;-0.066;2023-01-08T04:40:43;99613.09;;;7.55;100.00
60355;BME280;46198;51.464;-0.066;2023-01-08T04:43:11;99618.31;;;7.39;100.00
60355;BME280;46198;51.464;-0.066;2023-01-08T04:45:39;99617.94;;;7.35;100.00
60355;BME280;46198;51.464;-0.066;2023-01-08T04:48:07;99606.41;;;7.28;100.00
60355;BME280;46198;51.464;-0.066;2023-01-08T04:50:38;99606.28;;;7.23;100.00
60355;BME280;46198;51.464;-0.066;2023-01-08T04:53:06;99602.34;;;7.19;100.00
60355;BME280;46198;51.464;-0.066;2023-01-08T04:55:34;99593.53;;;7.12;100.00
60355;BME280;46198;51.464;-0.066;2023-01-08T04:58:05;99592.78;;;7.04;100.00
60355;BME280;46198;51.464;-0.066;2023-01-08T05:00:33;99593.78;;;6.92;100.00
60355;BME280;46198;51.464;-0.066;2023-01-08T05:03:01;99585.31;;;6.88;100.00
60355;BME280;46198;51.464;-0.066;2023-01-08T05:05:30;99581.28;;;6.79;100.00
60355;BME280;46198;51.464;-0.066;2023-01-08T05:07:59;99580.31;;;6.73;100.00
60355;BME280;46198;51.464;-0.066;2023-01-08T05:10:28;99570.41;;;6.67;100.00
60355;BME280;46198;51.464;-0.066;2023-01-08T05:12:57;99576.03;;;6.65;100.00
60355;BME280;46198;51.464;-0.066;2023-01-08T05:15:25;99577.06;;;6.64;100.00
60355;BME280;46198;51.464;-0.066;2023-01-08T05:17:58;99574.00;;;6.61;100.00
60355;BME280;46198;51.464;-0.066;2023-01-08T05:20:27;99570.34;;;6.55;100.00
60355;BME280;46198;51.464;-0.066;2023-01-08T05:22:56;99581.78;;;6.51;100.00
60355;BME280;46198;51.464;-0.066;2023-01-08T05:25:26;99572.88;;;6.50;100.00
60355;BME280;46198;51.464;-0.066;2023-01-08T05:27:54;99563.72;;;6.51;100.00
60355;BME280;46198;51.464;-0.066;2023-01-08T05:30:22;99565.47;;;6.46;100.00
60355;BME280;46198;51.464;-0.066;2023-01-08T05:32:51;99553.84;;;6.45;100.00
60355;BME280;46198;51.464;-0.066;2023-01-08T05:35:19;99552.22;;;6.44;100.00
60355;BME280;46198;51.464;-0.066;2023-01-08T05:37:47;99538.59;;;6.39;100.00
60355;BME280;46198;51.464;-0.066;2023-01-08T05:40:16;99539.03;;;6.36;100.00
60355;BME280;46198;51.464;-0.066;2023-01-08T05:42:45;99530.34;;;6.34;100.00
60355;BME280;46198;51.464;-0.066;2023-01-08T05:45:14;99528.25;;;6.36;100.00
60355;BME280;46198;51.464;-0.066;2023-01-08T05:47:43;99522.84;;;6.36;100.00
60355;BME280;46198;51.464;-0.066;2023-01-08T05:50:11;99517.53;;;6.29;100.00
60355;BME280;46198;51.464;-0.066;2023-01-08T05:52:39;99517.75;;;6.28;100.00
60355;BME280;46198;51.464;-0.066;2023-01-08T05:55:10;99515.28;;;6.26;100.00
60355;BME280;46198;51.464;-0.066;2023-01-08T05:57:38;99514.31;;;6.20;100.00
60355;BME280;46198;51.464;-0.066;2023-01-08T06:00:09;99515.81;;;6.16;100.00
60355;BME280;46198;51.464;-0.066;2023-01-08T06:02:37;99515.13;;;6.21;100.00
60355;BME280;46198;51.464;-0.066;2023-01-08T06:05:06;99517.00;;;6.20;100.00
60355;BME280;46198;51.464;-0.066;2023-01-08T06:07:34;99517.25;;;6.19;100.00
60355;BME280;46198;51.464;-0.066;2023-01-08T06:10:03;99523.16;;;6.28;100.00
60355;BME280;46198;51.464;-0.066;2023-01-08T06:12:31;99518.50;;;6.16;100.00
60355;BME280;46198;51.464;-0.066;2023-01-08T06:15:00;99522.84;;;6.17;100.00
60355;BME280;46198;51.464;-0.066;2023-01-08T06:17:29;99520.66;;;6.26;100.00
60355;BME280;46198;51.464;-0.066;2023-01-08T06:19:57;99514.53;;;6.19;100.00
60355;BME280;46198;51.464;-0.066;2023-01-08T06:22:25;99520.50;;;6.21;100.00
60355;BME280;46198;51.464;-0.066;2023-01-08T06:24:54;99516.19;;;6.20;100.00
60355;BME280;46198;51.464;-0.066;2023-01-08T06:27:22;99516.34;;;6.25;100.00
60355;BME280;46198;51.464;-0.066;2023-01-08T06:29:50;99507.19;;;6.26;100.00
60355;BME280;46198;51.464;-0.066;2023-01-08T06:32:18;99509.06;;;6.26;100.00
60355;BME280;46198;51.464;-0.066;2023-01-08T06:34:48;99512.59;;;6.26;100.00
60355;BME280;46198;51.464;-0.066;2023-01-08T06:37:16;99500.47;;;6.35;100.00
60355;BME280;46198;51.464;-0.066;2023-01-08T06:39:45;99491.78;;;6.33;100.00
60355;BME280;46198;51.464;-0.066;2023-01-08T06:42:15;99489.97;;;6.46;100.00
60355;BME280;46198;51.464;-0.066;2023-01-08T06:44:46;99498.28;;;6.44;100.00
60355;BME280;46198;51.464;-0.066;2023-01-08T06:47:19;99498.44;;;6.49;100.00
60355;BME280;46198;51.464;-0.066;2023-01-08T06:49:52;99500.44;;;6.54;100.00
60355;BME280;46198;51.464;-0.066;2023-01-08T06:52:25;99489.06;;;6.52;100.00
60355;BME280;46198;51.464;-0.066;2023-01-08T06:55:00;99488.22;;;6.51;100.00
60355;BME280;46198;51.464;-0.066;2023-01-08T07:07:18;99492.13;;;6.55;100.00
60355;BME280;46198;51.464;-0.066;2023-01-08T07:09:46;99492.75;;;6.57;100.00
60355;BME280;46198;51.464;-0.066;2023-01-08T07:12:15;99478.66;;;6.55;100.00
60355;BME280;46198;51.464;-0.066;2023-01-08T07:14:43;99487.19;;;6.52;100.00
60355;BME280;46198;51.464;-0.066;2023-01-08T07:17:13;99478.28;;;6.52;100.00
60355;BME280;46198;51.464;-0.066;2023-01-08T07:19:41;99481.81;;;6.52;100.00
60355;BME280;46198;51.464;-0.066;2023-01-08T07:22:09;99484.13;;;6.49;100.00
60355;BME280;46198;51.464;-0.066;2023-01-08T07:24:40;99487.41;;;6.51;100.00
60355;BME280;46198;51.464;-0.066;2023-01-08T07:27:08;99493.63;;;6.51;100.00
60355;BME280;46198;51.464;-0.066;2023-01-08T07:29:36;99496.94;;;6.53;100.00
60355;BME280;46198;51.464;-0.066;2023-01-08T07:32:13;99496.00;;;6.59;100.00
60355;BME280;46198;51.464;-0.066;2023-01-08T07:34:46;99493.78;;;6.56;100.00
60355;BME280;46198;51.464;-0.066;2023-01-08T07:37:17;99483.94;;;6.62;100.00
60355;BME280;46198;51.464;-0.066;2023-01-08T07:39:47;99483.59;;;6.58;100.00
60355;BME280;46198;51.464;-0.066;2023-01-08T07:42:19;99472.59;;;6.60;100.00
60355;BME280;46198;51.464;-0.066;2023-01-08T07:44:47;99459.09;;;6.60;100.00
60355;BME280;46198;51.464;-0.066;2023-01-08T07:47:19;99457.69;;;6.57;100.00
60355;BME280;46198;51.464;-0.066;2023-01-08T07:49:47;99458.00;;;6.49;100.00
60355;BME280;46198;51.464;-0.066;2023-01-08T07:52:16;99454.84;;;6.52;100.00
60355;BME280;46198;51.464;-0.066;2023-01-08T07:54:44;99448.47;;;6.47;100.00
60355;BME280;46198;51.464;-0.066;2023-01-08T07:57:14;99451.41;;;6.45;100.00
60355;BME280;46198;51.464;-0.066;2023-01-08T07:59:42;99462.63;;;6.42;100.00
60355;BME280;46198;51.464;-0.066;2023-01-08T08:02:10;99447.66;;;6.46;100.00
60355;BME280;46198;51.464;-0.066;2023-01-08T08:04:39;99445.66;;;6.41;100.00
60355;BME280;46198;51.464;-0.066;2023-01-08T08:07:07;99447.72;;;6.39;100.00
60355;BME280;46198;51.464;-0.066;2023-01-08T08:09:36;99434.50;;;6.38;100.00
60355;BME280;46198;51.464;-0.066;2023-01-08T08:12:04;99432.53;;;6.45;100.00
60355;BME280;46198;51.464;-0.066;2023-01-08T08:14:34;99442.84;;;6.48;100.00
60355;BME280;46198;51.464;-0.066;2023-01-08T08:17:02;99442.38;;;6.51;100.00
60355;BME280;46198;51.464;-0.066;2023-01-08T08:19:31;99451.75;;;6.49;100.00
60355;BME280;46198;51.464;-0.066;2023-01-08T08:21:59;99436.75;;;6.41;100.00
60355;BME280;46198;51.464;-0.066;2023-01-08T08:24:27;99446.81;;;6.46;100.00
60355;BME280;46198;51.464;-0.066;2023-01-08T08:26:55;99439.78;;;6.44;100.00
60355;BME280;46198;51.464;-0.066;2023-01-08T08:29:24;99433.78;;;6.42;100.00
60355;BME280;46198;51.464;-0.066;2023-01-08T08:31:53;99427.38;;;6.43;100.00
60355;BME280;46198;51.464;-0.066;2023-01-08T08:34:21;99416.50;;;6.50;100.00
60355;BME280;46198;51.464;-0.066;2023-01-08T08:36:50;99420.69;;;6.46;100.00
60355;BME280;46198;51.464;-0.066;2023-01-08T08:39:19;99426.09;;;6.46;100.00
60355;BME280;46198;51.464;-0.066;2023-01-08T08:41:48;99421.53;;;6.47;100.00
60355;BME280;46198;51.464;-0.066;2023-01-08T08:44:17;99425.41;;;6.51;100.00
60355;BME280;46198;51.464;-0.066;2023-01-08T08:46:45;99420.25;;;6.49;100.00
60355;BME280;46198;51.464;-0.066;2023-01-08T08:49:14;99420.59;;;6.53;100.00
60355;BME280;46198;51.464;-0.066;2023-01-08T08:51:43;99413.78;;;6.50;100.00
60355;BME280;46198;51.464;-0.066;2023-01-08T08:54:11;99405.03;;;6.55;100.00
60355;BME280;46198;51.464;-0.066;2023-01-08T08:56:39;99405.84;;;6.55;100.00
60355;BME280;46198;51.464;-0.066;2023-01-08T08:59:08;99401.94;;;6.51;100.00
60355;BME280;46198;51.464;-0.066;2023-01-08T09:01:41;99408.69;;;6.60;100.00
60355;BME280;46198;51.464;-0.066;2023-01-08T09:04:11;99394.59;;;6.58;100.00
60355;BME280;46198;51.464;-0.066;2023-01-08T09:06:42;99403.28;;;6.60;100.00
60355;BME280;46198;51.464;-0.066;2023-01-08T09:09:12;99396.22;;;6.59;100.00
60355;BME280;46198;51.464;-0.066;2023-01-08T09:11:41;99385.97;;;6.68;100.00
60355;BME280;46198;51.464;-0.066;2023-01-08T09:14:09;99389.81;;;6.72;100.00
60355;BME280;46198;51.464;-0.066;2023-01-08T09:16:37;99378.34;;;6.65;100.00
60355;BME280;46198;51.464;-0.066;2023-01-08T09:19:06;99379.16;;;6.77;100.00
60355;BME280;46198;51.464;-0.066;2023-01-08T09:21:34;99382.00;;;6.82;100.00
60355;BME280;46198;51.464;-0.066;2023-01-08T09:24:06;99365.00;;;6.82;100.00
60355;BME280;46198;51.464;-0.066;2023-01-08T09:26:34;99355.84;;;6.83;100.00
60355;BME280;46198;51.464;-0.066;2023-01-08T09:29:02;99366.16;;;6.86;100.00
60355;BME280;46198;51.464;-0.066;2023-01-08T09:31:32;99343.78;;;6.97;100.00
60355;BME280;46198;51.464;-0.066;2023-01-08T09:34:01;99336.16;;;6.94;100.00
60355;BME280;46198;51.464;-0.066;2023-01-08T09:36:29;99332.97;;;6.97;100.00
60355;BME280;46198;51.464;-0.066;2023-01-08T09:38:57;99341.06;;;6.97;100.00
60355;BME280;46198;51.464;-0.066;2023-01-08T09:41:27;99346.84;;;7.01;100.00
60355;BME280;46198;51.464;-0.066;2023-01-08T09:43:58;99344.03;;;7.07;100.00
60355;BME280;46198;51.464;-0.066;2023-01-08T09:46:30;99347.44;;;7.26;100.00
60355;BME280;46198;51.464;-0.066;2023-01-08T09:49:00;99346.75;;;7.31;100.00
60355;BME280;46198;51.464;-0.066;2023-01-08T09:51:33;99342.28;;;7.37;100.00
60355;BME280;46198;51.464;-0.066;2023-01-08T09:54:03;99338.75;;;7.36;100.00
60355;BME280;46198;51.464;-0.066;2023-01-08T09:56:35;99341.44;;;7.48;100.00
60355;BME280;46198;51.464;-0.066;2023-01-08T09:59:04;99334.75;;;7.50;100.00
60355;BME280;46198;51.464;-0.066;2023-01-08T10:01:35;99334.88;;;7.55;100.00
60355;BME280;46198;51.464;-0.066;2023-01-08T10:04:09;99332.41;;;7.66;100.00
60355;BME280;46198;51.464;-0.066;2023-01-08T10:06:49;99327.66;;;7.73;100.00
60355;BME280;46198;51.464;-0.066;2023-01-08T10:09:23;99327.28;;;7.81;100.00
60355;BME280;46198;51.464;-0.066;2023-01-08T10:11:55;99318.38;;;7.81;100.00
60355;BME280;46198;51.464;-0.066;2023-01-08T10:14:28;99324.97;;;7.85;100.00
60355;BME280;46198;51.464;-0.066;2023-01-08T10:16:59;99328.22;;;7.87;100.00
60355;BME280;46198;51.464;-0.066;2023-01-08T10:19:29;99321.03;;;7.92;100.00
60355;BME280;46198;51.464;-0.066;2023-01-08T10:21:57;99324.31;;;7.94;100.00
60355;BME280;46198;51.464;-0.066;2023-01-08T10:24:31;99313.03;;;7.97;100.00
60355;BME280;46198;51.464;-0.066;2023-01-08T10:27:10;99309.38;;;8.04;100.00
60355;BME280;46198;51.464;-0.066;2023-01-08T10:29:39;99310.53;;;8.08;100.00
60355;BME280;46198;51.464;-0.066;2023-01-08T10:32:11;99298.66;;;8.09;100.00
60355;BME280;46198;51.464;-0.066;2023-01-08T10:34:44;99307.94;;;8.13;100.00
60355;BME280;46198;51.464;-0.066;2023-01-08T10:37:14;99302.38;;;8.19;100.00
60355;BME280;46198;51.464;-0.066;2023-01-08T10:39:46;99305.44;;;8.23;100.00
60355;BME280;46198;51.464;-0.066;2023-01-08T10:42:17;99306.00;;;8.25;100.00
60355;BME280;46198;51.464;-0.066;2023-01-08T10:44:51;99289.41;;;8.33;100.00
60355;BME280;46198;51.464;-0.066;2023-01-08T10:47:22;99290.94;;;8.29;100.00
60355;BME280;46198;51.464;-0.066;2023-01-08T10:49:52;99297.41;;;8.28;100.00
60355;BME280;46198;51.464;-0.066;2023-01-08T10:52:28;99283.63;;;8.30;100.00
60355;BME280;46198;51.464;-0.066;2023-01-08T10:55:10;99282.44;;;8.37;100.00
60355;BME280;46198;51.464;-0.066;2023-01-08T10:57:41;99284.06;;;8.38;100.00
60355;BME280;46198;51.464;-0.066;2023-01-08T11:00:28;99264.19;;;8.45;100.00
60355;BME280;46198;51.464;-0.066;2023-01-08T11:02:59;99261.50;;;8.45;100.00
60355;BME280;46198;51.464;-0.066;2023-01-08T11:05:32;99241.56;;;8.51;100.00
60355;BME280;46198;51.464;-0.066;2023-01-08T11:08:04;99249.19;;;8.54;100.00
60355;BME280;46198;51.464;-0.066;2023-01-08T11:10:35;99245.84;;;8.63;100.00
60355;BME280;46198;51.464;-0.066;2023-01-08T11:13:06;99247.56;;;8.70;100.00
60355;BME280;46198;51.464;-0.066;2023-01-08T11:15:37;99231.06;;;8.71;100.00
60355;BME280;46198;51.464;-0.066;2023-01-08T11:18:12;99227.94;;;8.79;100.00
60355;BME280;46198;51.464;-0.066;2023-01-08T11:20:44;99226.16;;;8.85;100.00
60355;BME280;46198;51.464;-0.066;2023-01-08T11:23:16;99207.44;;;8.83;100.00
60355;BME280;46198;51.464;-0.066;2023-01-08T11:25:50;99237.78;;;8.85;100.00
60355;BME280;46198;51.464;-0.066;2023-01-08T11:28:29;99216.78;;;8.93;100.00
60355;BME280;46198;51.464;-0.066;2023-01-08T11:31:09;99202.69;;;8.91;100.00
60355;BME280;46198;51.464;-0.066;2023-01-08T11:33:40;99207.34;;;8.95;100.00
60355;BME280;46198;51.464;-0.066;2023-01-08T11:36:12;99202.00;;;9.00;100.00
60355;BME280;46198;51.464;-0.066;2023-01-08T11:38:47;99191.75;;;9.02;100.00
60355;BME280;46198;51.464;-0.066;2023-01-08T11:41:24;99181.56;;;9.09;100.00
60355;BME280;46198;51.464;-0.066;2023-01-08T11:44:11;99166.72;;;9.12;100.00
60355;BME280;46198;51.464;-0.066;2023-01-08T11:46:49;99170.16;;;9.07;100.00
60355;BME280;46198;51.464;-0.066;2023-01-08T11:49:36;99178.50;;;9.06;100.00
60355;BME280;46198;51.464;-0.066;2023-01-08T11:52:17;99162.53;;;9.04;100.00
60355;BME280;46198;51.464;-0.066;2023-01-08T11:55:00;99160.06;;;9.03;100.00
60355;BME280;46198;51.464;-0.066;2023-01-08T11:57:42;99158.69;;;9.00;100.00
60355;BME280;46198;51.464;-0.066;2023-01-08T12:00:30;99151.38;;;9.01;100.00
60355;BME280;46198;51.464;-0.066;2023-01-08T12:03:01;99138.97;;;9.05;100.00
60355;BME280;46198;51.464;-0.066;2023-01-08T12:05:34;99143.09;;;9.07;100.00
60355;BME280;46198;51.464;-0.066;2023-01-08T12:08:13;99146.22;;;9.21;100.00
60355;BME280;46198;51.464;-0.066;2023-01-08T12:10:53;99126.47;;;9.21;100.00
60355;BME280;46198;51.464;-0.066;2023-01-08T12:13:42;99116.19;;;9.23;100.00
60355;BME280;46198;51.464;-0.066;2023-01-08T12:16:28;99121.84;;;9.21;100.00
60355;BME280;46198;51.464;-0.066;2023-01-08T12:19:16;99094.78;;;9.21;100.00
60355;BME280;46198;51.464;-0.066;2023-01-08T12:22:00;99097.41;;;9.16;100.00
60355;BME280;46198;51.464;-0.066;2023-01-08T12:24:48;99094.91;;;9.09;100.00
60355;BME280;46198;51.464;-0.066;2023-01-08T12:27:26;99109.94;;;9.00;100.00
60355;BME280;46198;51.464;-0.066;2023-01-08T12:30:28;99088.38;;;8.83;100.00
60355;BME280;46198;51.464;-0.066;2023-01-08T12:33:02;99103.13;;;8.76;100.00
60355;BME280;46198;51.464;-0.066;2023-01-08T12:35:37;99109.06;;;8.73;100.00
60355;BME280;46198;51.464;-0.066;2023-01-08T12:38:11;99087.84;;;8.86;100.00
60355;BME280;46198;51.464;-0.066;2023-01-08T12:40:42;99082.94;;;8.83;100.00
60355;BME280;46198;51.464;-0.066;2023-01-08T12:43:14;99065.41;;;8.86;100.00
60355;BME280;46198;51.464;-0.066;2023-01-08T12:45:47;99062.25;;;8.94;100.00
60355;BME280;46198;51.464;-0.066;2023-01-08T12:48:22;99057.50;;;8.84;100.00
60355;BME280;46198;51.464;-0.066;2023-01-08T12:50:58;99056.69;;;8.84;100.00
60355;BME280;46198;51.464;-0.066;2023-01-08T12:53:36;99042.16;;;8.90;100.00
60355;BME280;46198;51.464;-0.066;2023-01-08T12:56:12;99053.81;;;8.91;100.00
60355;BME280;46198;51.464;-0.066;2023-01-08T12:59:00;99029.41;;;8.85;100.00
60355;BME280;46198;51.464;-0.066;2023-01-08T13:01:37;99032.09;;;8.85;100.00
60355;BME280;46198;51.464;-0.066;2023-01-08T13:04:11;99019.31;;;8.81;100.00
60355;BME280;46198;51.464;-0.066;2023-01-08T13:06:49;99016.84;;;8.79;100.00
60355;BME280;46198;51.464;-0.066;2023-01-08T13:09:21;99015.06;;;8.85;100.00
60355;BME280;46198;51.464;-0.066;2023-01-08T13:11:52;99008.72;;;8.79;100.00
60355;BME280;46198;51.464;-0.066;2023-01-08T13:14:24;99009.00;;;8.78;100.00
60355;BME280;46198;51.464;-0.066;2023-01-08T13:17:02;99021.66;;;8.72;100.00
60355;BME280;46198;51.464;-0.066;2023-01-08T13:19:38;99023.78;;;8.70;100.00
60355;BME280;46198;51.464;-0.066;2023-01-08T13:22:22;99019.69;;;8.68;100.00